aviador You're here:

LFOE Decoded Metar

EVREUX in FRANCE
Report Time2017-08-22 11:00:00
UTC Time2017-08-22 11:06:26
Flight Rules mvfr MVFR
WindVRB at 03 kt
Visibility9999 m
Phenomena:N/A
Clouds:Broken 020 Hf
Broken 190 Hf
Broken 220 Hf
Expected CloudBase > 2,400 ft AGL from Temp-Dew spread
Ceiling2,000 ft
Temp23°C (ISA +9)
Dew Point17°C (69% RH)
QNH1019 hPa
Density Alt1,578 ft
Elevation479 ft
Report Wrong Elevation
Raw Report
METAR LFOE 221100Z AUTO VRB03KT 9999 BKN020 BKN190 BKN220 23/17 Q1019=

Extra information for LFOE:More info

Metar Taf Metar & Taf Last 4 Metars F.Rules Stats Wind Profile Meteogram Temp Stats Airport Information Weather charts Add Link Nearby VenuesMetar ALERT Operation Metar Decoded Social comments